Terminal Aerodrome Forecast
Issued by NWS Springfield, MO

Home | Current Version | Previous Version | Text Only | Print | Product List | Glossary On
Versions: 1 2 3 4 5 6 7 8 9 10 11 12 13 14
000
FTUS43 KSGF 270700 AAA
TAFSGF
TAF AMD
KSGF 270724Z 2707/2806 36005KT 6SM -RA OVC040
      TEMPO 2709/2712 -RASN BKN025 OVC040
     FM271200 01010KT P6SM BKN025
      TEMPO 2712/2714 -RASN OVC015
     FM271500 36010KT P6SM BKN050 BKN250
     FM271900 35010KT P6SM BKN100=

USA.gov is the U.S. government's official web portal to all federal, state and local government web resources and services.